sensor_id;sensor_type;location;lat;lon;timestamp;P1;durP1;ratioP1;P2;durP2;ratioP2
21810;SDS011;11067;48.788;9.208;2022-09-02T00:01:41;5.80;;;4.97;;
21810;SDS011;11067;48.788;9.208;2022-09-02T00:04:09;5.87;;;5.03;;
21810;SDS011;11067;48.788;9.208;2022-09-02T00:06:37;5.45;;;4.95;;
21810;SDS011;11067;48.788;9.208;2022-09-02T00:09:05;6.40;;;5.20;;
21810;SDS011;11067;48.788;9.208;2022-09-02T00:11:33;6.63;;;5.40;;
21810;SDS011;11067;48.788;9.208;2022-09-02T00:14:02;6.05;;;4.97;;
21810;SDS011;11067;48.788;9.208;2022-09-02T00:16:30;6.38;;;5.05;;
21810;SDS011;11067;48.788;9.208;2022-09-02T00:18:57;5.47;;;4.97;;
21810;SDS011;11067;48.788;9.208;2022-09-02T00:21:24;5.95;;;4.93;;
21810;SDS011;11067;48.788;9.208;2022-09-02T00:23:50;7.67;;;4.97;;
21810;SDS011;11067;48.788;9.208;2022-09-02T00:26:16;9.77;;;5.20;;
21810;SDS011;11067;48.788;9.208;2022-09-02T00:28:42;8.27;;;4.90;;
21810;SDS011;11067;48.788;9.208;2022-09-02T00:31:08;6.23;;;4.50;;
21810;SDS011;11067;48.788;9.208;2022-09-02T00:33:34;9.57;;;4.60;;
21810;SDS011;11067;48.788;9.208;2022-09-02T00:36:00;8.15;;;5.30;;
21810;SDS011;11067;48.788;9.208;2022-09-02T00:38:27;5.57;;;4.68;;
21810;SDS011;11067;48.788;9.208;2022-09-02T00:40:57;5.57;;;4.83;;
21810;SDS011;11067;48.788;9.208;2022-09-02T00:44:05;5.87;;;5.20;;
21810;SDS011;11067;48.788;9.208;2022-09-02T00:46:21;6.10;;;5.03;;
21810;SDS011;11067;48.788;9.208;2022-09-02T00:48:56;8.13;;;5.27;;
21810;SDS011;11067;48.788;9.208;2022-09-02T00:51:27;6.22;;;5.15;;
21810;SDS011;11067;48.788;9.208;2022-09-02T00:53:57;8.07;;;5.07;;
21810;SDS011;11067;48.788;9.208;2022-09-02T00:56:24;6.05;;;5.45;;
21810;SDS011;11067;48.788;9.208;2022-09-02T00:58:52;8.82;;;5.15;;
21810;SDS011;11067;48.788;9.208;2022-09-02T01:01:19;6.57;;;5.18;;
21810;SDS011;11067;48.788;9.208;2022-09-02T01:03:46;6.32;;;4.80;;
21810;SDS011;11067;48.788;9.208;2022-09-02T01:06:13;9.80;;;5.18;;
21810;SDS011;11067;48.788;9.208;2022-09-02T01:08:44;8.18;;;5.10;;
21810;SDS011;11067;48.788;9.208;2022-09-02T01:11:12;6.10;;;5.05;;
21810;SDS011;11067;48.788;9.208;2022-09-02T01:13:39;9.47;;;5.40;;
21810;SDS011;11067;48.788;9.208;2022-09-02T01:16:18;7.07;;;5.23;;
21810;SDS011;11067;48.788;9.208;2022-09-02T01:18:51;9.25;;;5.50;;
21810;SDS011;11067;48.788;9.208;2022-09-02T01:21:20;8.03;;;4.80;;
21810;SDS011;11067;48.788;9.208;2022-09-02T01:23:47;8.48;;;5.20;;
21810;SDS011;11067;48.788;9.208;2022-09-02T01:26:13;7.80;;;5.07;;
21810;SDS011;11067;48.788;9.208;2022-09-02T01:28:39;9.47;;;5.30;;
21810;SDS011;11067;48.788;9.208;2022-09-02T01:31:05;10.52;;;4.70;;
21810;SDS011;11067;48.788;9.208;2022-09-02T01:33:31;6.82;;;4.75;;
21810;SDS011;11067;48.788;9.208;2022-09-02T01:35:57;6.55;;;4.38;;
21810;SDS011;11067;48.788;9.208;2022-09-02T01:38:24;7.57;;;4.30;;
21810;SDS011;11067;48.788;9.208;2022-09-02T01:40:49;5.70;;;4.40;;
21810;SDS011;11067;48.788;9.208;2022-09-02T01:43:18;5.53;;;4.17;;
21810;SDS011;11067;48.788;9.208;2022-09-02T01:45:46;5.43;;;4.53;;
21810;SDS011;11067;48.788;9.208;2022-09-02T01:48:13;7.13;;;4.50;;
21810;SDS011;11067;48.788;9.208;2022-09-02T01:50:42;7.65;;;4.25;;
21810;SDS011;11067;48.788;9.208;2022-09-02T01:53:10;5.65;;;4.47;;
21810;SDS011;11067;48.788;9.208;2022-09-02T01:55:36;9.10;;;4.60;;
21810;SDS011;11067;48.788;9.208;2022-09-02T01:58:02;9.23;;;4.40;;
21810;SDS011;11067;48.788;9.208;2022-09-02T02:00:27;7.10;;;4.50;;
21810;SDS011;11067;48.788;9.208;2022-09-02T02:02:53;6.90;;;4.00;;
21810;SDS011;11067;48.788;9.208;2022-09-02T02:05:19;6.55;;;4.40;;
21810;SDS011;11067;48.788;9.208;2022-09-02T02:07:45;4.50;;;4.10;;
21810;SDS011;11067;48.788;9.208;2022-09-02T02:10:12;3.70;;;3.30;;
21810;SDS011;11067;48.788;9.208;2022-09-02T02:12:39;4.18;;;3.50;;
21810;SDS011;11067;48.788;9.208;2022-09-02T02:15:06;4.85;;;3.90;;
21810;SDS011;11067;48.788;9.208;2022-09-02T02:17:34;4.22;;;3.83;;
21810;SDS011;11067;48.788;9.208;2022-09-02T02:20:00;4.53;;;3.97;;
21810;SDS011;11067;48.788;9.208;2022-09-02T02:22:25;5.33;;;3.83;;
21810;SDS011;11067;48.788;9.208;2022-09-02T02:24:51;4.63;;;3.90;;
21810;SDS011;11067;48.788;9.208;2022-09-02T02:27:18;7.43;;;4.38;;
21810;SDS011;11067;48.788;9.208;2022-09-02T02:29:44;5.95;;;4.45;;
21810;SDS011;11067;48.788;9.208;2022-09-02T02:32:09;7.22;;;4.60;;
21810;SDS011;11067;48.788;9.208;2022-09-02T02:34:36;4.80;;;4.30;;
21810;SDS011;11067;48.788;9.208;2022-09-02T02:37:02;6.65;;;3.83;;
21810;SDS011;11067;48.788;9.208;2022-09-02T02:39:27;5.43;;;4.28;;
21810;SDS011;11067;48.788;9.208;2022-09-02T02:41:53;5.17;;;4.37;;
21810;SDS011;11067;48.788;9.208;2022-09-02T02:44:18;5.22;;;4.15;;
21810;SDS011;11067;48.788;9.208;2022-09-02T02:46:44;8.53;;;4.70;;
21810;SDS011;11067;48.788;9.208;2022-09-02T02:49:10;7.03;;;4.57;;
21810;SDS011;11067;48.788;9.208;2022-09-02T02:51:35;4.70;;;4.22;;
21810;SDS011;11067;48.788;9.208;2022-09-02T02:54:02;6.40;;;4.35;;
21810;SDS011;11067;48.788;9.208;2022-09-02T02:56:29;6.70;;;4.38;;
21810;SDS011;11067;48.788;9.208;2022-09-02T02:58:55;5.55;;;4.03;;
21810;SDS011;11067;48.788;9.208;2022-09-02T03:01:22;6.80;;;4.33;;
21810;SDS011;11067;48.788;9.208;2022-09-02T03:03:47;6.33;;;4.40;;
21810;SDS011;11067;48.788;9.208;2022-09-02T03:06:13;4.97;;;4.33;;
21810;SDS011;11067;48.788;9.208;2022-09-02T03:08:39;6.68;;;4.32;;
21810;SDS011;11067;48.788;9.208;2022-09-02T03:11:04;6.13;;;4.22;;
21810;SDS011;11067;48.788;9.208;2022-09-02T03:13:31;5.38;;;4.15;;
21810;SDS011;11067;48.788;9.208;2022-09-02T03:15:57;5.88;;;4.43;;
21810;SDS011;11067;48.788;9.208;2022-09-02T03:18:23;6.50;;;4.70;;
21810;SDS011;11067;48.788;9.208;2022-09-02T03:20:49;5.63;;;4.50;;
21810;SDS011;11067;48.788;9.208;2022-09-02T03:23:15;6.70;;;4.22;;
21810;SDS011;11067;48.788;9.208;2022-09-02T03:25:43;5.50;;;4.65;;
21810;SDS011;11067;48.788;9.208;2022-09-02T03:28:09;6.95;;;4.82;;
21810;SDS011;11067;48.788;9.208;2022-09-02T03:30:37;6.97;;;4.40;;
21810;SDS011;11067;48.788;9.208;2022-09-02T03:33:04;5.78;;;4.45;;
21810;SDS011;11067;48.788;9.208;2022-09-02T03:35:30;11.02;;;5.03;;
21810;SDS011;11067;48.788;9.208;2022-09-02T03:37:57;6.73;;;4.87;;
21810;SDS011;11067;48.788;9.208;2022-09-02T03:40:24;7.80;;;4.88;;
21810;SDS011;11067;48.788;9.208;2022-09-02T03:42:52;8.02;;;4.30;;
21810;SDS011;11067;48.788;9.208;2022-09-02T03:45:18;6.07;;;4.95;;
21810;SDS011;11067;48.788;9.208;2022-09-02T03:47:44;7.10;;;5.00;;
21810;SDS011;11067;48.788;9.208;2022-09-02T03:50:22;7.78;;;4.85;;
21810;SDS011;11067;48.788;9.208;2022-09-02T03:52:51;7.37;;;5.00;;
21810;SDS011;11067;48.788;9.208;2022-09-02T03:55:18;10.70;;;5.70;;
21810;SDS011;11067;48.788;9.208;2022-09-02T03:57:44;8.70;;;4.82;;
21810;SDS011;11067;48.788;9.208;2022-09-02T04:00:11;5.22;;;4.65;;
21810;SDS011;11067;48.788;9.208;2022-09-02T04:02:38;6.75;;;5.10;;
21810;SDS011;11067;48.788;9.208;2022-09-02T04:05:04;8.87;;;4.70;;
21810;SDS011;11067;48.788;9.208;2022-09-02T04:07:30;6.10;;;4.72;;
21810;SDS011;11067;48.788;9.208;2022-09-02T04:09:55;8.30;;;4.57;;
21810;SDS011;11067;48.788;9.208;2022-09-02T04:12:21;9.23;;;4.63;;
21810;SDS011;11067;48.788;9.208;2022-09-02T04:14:47;6.43;;;4.65;;
21810;SDS011;11067;48.788;9.208;2022-09-02T04:17:13;6.65;;;5.35;;
21810;SDS011;11067;48.788;9.208;2022-09-02T04:19:38;6.83;;;5.07;;
21810;SDS011;11067;48.788;9.208;2022-09-02T04:22:05;6.07;;;4.83;;
21810;SDS011;11067;48.788;9.208;2022-09-02T04:24:31;6.57;;;4.95;;
21810;SDS011;11067;48.788;9.208;2022-09-02T04:26:57;10.05;;;5.43;;
21810;SDS011;11067;48.788;9.208;2022-09-02T04:29:22;5.40;;;4.67;;
21810;SDS011;11067;48.788;9.208;2022-09-02T04:31:48;6.65;;;4.97;;
21810;SDS011;11067;48.788;9.208;2022-09-02T04:34:14;8.48;;;5.10;;
21810;SDS011;11067;48.788;9.208;2022-09-02T04:36:39;6.63;;;4.87;;
21810;SDS011;11067;48.788;9.208;2022-09-02T04:39:05;6.87;;;5.10;;
21810;SDS011;11067;48.788;9.208;2022-09-02T04:41:33;5.93;;;5.28;;
21810;SDS011;11067;48.788;9.208;2022-09-02T04:43:59;6.43;;;5.13;;
21810;SDS011;11067;48.788;9.208;2022-09-02T04:46:26;10.32;;;5.35;;
21810;SDS011;11067;48.788;9.208;2022-09-02T04:48:52;7.38;;;4.90;;
21810;SDS011;11067;48.788;9.208;2022-09-02T04:51:18;9.73;;;5.50;;
21810;SDS011;11067;48.788;9.208;2022-09-02T04:53:47;6.47;;;4.97;;
21810;SDS011;11067;48.788;9.208;2022-09-02T04:56:15;6.43;;;5.05;;
21810;SDS011;11067;48.788;9.208;2022-09-02T04:58:43;7.30;;;4.95;;
21810;SDS011;11067;48.788;9.208;2022-09-02T05:01:16;10.20;;;5.00;;
21810;SDS011;11067;48.788;9.208;2022-09-02T05:03:45;6.35;;;5.10;;
21810;SDS011;11067;48.788;9.208;2022-09-02T05:06:14;6.70;;;4.90;;
21810;SDS011;11067;48.788;9.208;2022-09-02T05:08:42;7.90;;;4.72;;
21810;SDS011;11067;48.788;9.208;2022-09-02T05:11:12;9.68;;;5.00;;
21810;SDS011;11067;48.788;9.208;2022-09-02T05:13:42;6.93;;;4.78;;
21810;SDS011;11067;48.788;9.208;2022-09-02T05:16:08;6.80;;;5.10;;
21810;SDS011;11067;48.788;9.208;2022-09-02T05:18:34;6.05;;;4.97;;
21810;SDS011;11067;48.788;9.208;2022-09-02T05:21:03;7.93;;;5.13;;
21810;SDS011;11067;48.788;9.208;2022-09-02T05:23:29;9.75;;;4.88;;
21810;SDS011;11067;48.788;9.208;2022-09-02T05:25:54;12.50;;;5.00;;
21810;SDS011;11067;48.788;9.208;2022-09-02T05:28:20;5.97;;;4.40;;
21810;SDS011;11067;48.788;9.208;2022-09-02T05:30:45;8.02;;;4.25;;
21810;SDS011;11067;48.788;9.208;2022-09-02T05:33:11;7.20;;;4.20;;
21810;SDS011;11067;48.788;9.208;2022-09-02T05:35:40;7.17;;;4.40;;
21810;SDS011;11067;48.788;9.208;2022-09-02T05:38:06;7.18;;;3.85;;
21810;SDS011;11067;48.788;9.208;2022-09-02T05:40:32;7.00;;;3.90;;
21810;SDS011;11067;48.788;9.208;2022-09-02T05:42:59;7.03;;;4.10;;
21810;SDS011;11067;48.788;9.208;2022-09-02T05:45:25;8.00;;;4.00;;
21810;SDS011;11067;48.788;9.208;2022-09-02T05:47:50;5.60;;;3.85;;
21810;SDS011;11067;48.788;9.208;2022-09-02T05:50:16;7.30;;;4.17;;
21810;SDS011;11067;48.788;9.208;2022-09-02T05:52:42;5.93;;;3.97;;
21810;SDS011;11067;48.788;9.208;2022-09-02T05:55:08;5.87;;;4.10;;
21810;SDS011;11067;48.788;9.208;2022-09-02T05:57:34;6.97;;;3.80;;
21810;SDS011;11067;48.788;9.208;2022-09-02T05:59:59;9.80;;;3.93;;
21810;SDS011;11067;48.788;9.208;2022-09-02T06:02:25;7.15;;;3.88;;
21810;SDS011;11067;48.788;9.208;2022-09-02T06:04:51;5.20;;;3.70;;
21810;SDS011;11067;48.788;9.208;2022-09-02T06:07:19;4.90;;;3.55;;
21810;SDS011;11067;48.788;9.208;2022-09-02T06:09:47;6.00;;;3.53;;
21810;SDS011;11067;48.788;9.208;2022-09-02T06:12:13;6.20;;;3.60;;
21810;SDS011;11067;48.788;9.208;2022-09-02T06:14:41;5.55;;;3.33;;
21810;SDS011;11067;48.788;9.208;2022-09-02T06:17:06;7.22;;;3.60;;
21810;SDS011;11067;48.788;9.208;2022-09-02T06:19:32;6.70;;;3.90;;
21810;SDS011;11067;48.788;9.208;2022-09-02T06:21:58;5.60;;;3.80;;
21810;SDS011;11067;48.788;9.208;2022-09-02T06:24:26;4.43;;;3.57;;
21810;SDS011;11067;48.788;9.208;2022-09-02T06:26:52;5.55;;;3.90;;
21810;SDS011;11067;48.788;9.208;2022-09-02T06:29:18;5.75;;;4.28;;
21810;SDS011;11067;48.788;9.208;2022-09-02T06:31:45;6.07;;;4.20;;
21810;SDS011;11067;48.788;9.208;2022-09-02T06:34:13;5.23;;;4.00;;
21810;SDS011;11067;48.788;9.208;2022-09-02T06:36:40;7.43;;;4.25;;
21810;SDS011;11067;48.788;9.208;2022-09-02T06:39:09;7.10;;;3.95;;
21810;SDS011;11067;48.788;9.208;2022-09-02T06:41:37;6.20;;;4.10;;
21810;SDS011;11067;48.788;9.208;2022-09-02T06:44:04;6.13;;;4.03;;
21810;SDS011;11067;48.788;9.208;2022-09-02T06:46:32;7.03;;;3.80;;
21810;SDS011;11067;48.788;9.208;2022-09-02T06:49:00;12.15;;;4.38;;
21810;SDS011;11067;48.788;9.208;2022-09-02T06:51:28;5.85;;;3.90;;
21810;SDS011;11067;48.788;9.208;2022-09-02T06:53:56;8.93;;;5.35;;
21810;SDS011;11067;48.788;9.208;2022-09-02T06:56:22;9.60;;;4.10;;
21810;SDS011;11067;48.788;9.208;2022-09-02T06:58:48;7.35;;;3.88;;
21810;SDS011;11067;48.788;9.208;2022-09-02T07:01:27;6.72;;;3.58;;
21810;SDS011;11067;48.788;9.208;2022-09-02T07:03:55;4.73;;;3.47;;
21810;SDS011;11067;48.788;9.208;2022-09-02T07:06:45;5.40;;;3.42;;
21810;SDS011;11067;48.788;9.208;2022-09-02T07:09:14;4.70;;;3.47;;
21810;SDS011;11067;48.788;9.208;2022-09-02T07:11:41;8.15;;;3.55;;
21810;SDS011;11067;48.788;9.208;2022-09-02T07:14:11;9.60;;;3.70;;
21810;SDS011;11067;48.788;9.208;2022-09-02T07:16:41;5.07;;;3.83;;
21810;SDS011;11067;48.788;9.208;2022-09-02T07:19:08;4.85;;;3.50;;
21810;SDS011;11067;48.788;9.208;2022-09-02T07:21:35;4.18;;;3.58;;
21810;SDS011;11067;48.788;9.208;2022-09-02T07:24:01;6.53;;;3.22;;
21810;SDS011;11067;48.788;9.208;2022-09-02T07:26:27;5.67;;;3.63;;
21810;SDS011;11067;48.788;9.208;2022-09-02T07:28:53;6.00;;;3.20;;
21810;SDS011;11067;48.788;9.208;2022-09-02T07:31:20;4.13;;;3.13;;
21810;SDS011;11067;48.788;9.208;2022-09-02T07:33:47;5.82;;;3.55;;
21810;SDS011;11067;48.788;9.208;2022-09-02T07:36:13;3.78;;;3.35;;
21810;SDS011;11067;48.788;9.208;2022-09-02T07:38:40;6.80;;;3.55;;
21810;SDS011;11067;48.788;9.208;2022-09-02T07:41:06;4.57;;;3.13;;
21810;SDS011;11067;48.788;9.208;2022-09-02T07:43:33;7.43;;;3.53;;
21810;SDS011;11067;48.788;9.208;2022-09-02T07:45:59;4.80;;;2.80;;
21810;SDS011;11067;48.788;9.208;2022-09-02T07:48:26;3.70;;;2.42;;
21810;SDS011;11067;48.788;9.208;2022-09-02T07:50:53;3.13;;;2.38;;
21810;SDS011;11067;48.788;9.208;2022-09-02T07:53:19;4.47;;;2.63;;
21810;SDS011;11067;48.788;9.208;2022-09-02T07:55:46;3.55;;;2.30;;
21810;SDS011;11067;48.788;9.208;2022-09-02T07:58:13;3.10;;;2.17;;
21810;SDS011;11067;48.788;9.208;2022-09-02T08:00:40;3.67;;;2.60;;
21810;SDS011;11067;48.788;9.208;2022-09-02T08:03:06;4.75;;;2.40;;
21810;SDS011;11067;48.788;9.208;2022-09-02T08:05:32;3.47;;;2.20;;
21810;SDS011;11067;48.788;9.208;2022-09-02T08:07:59;3.65;;;2.05;;
21810;SDS011;11067;48.788;9.208;2022-09-02T08:10:26;4.25;;;2.70;;
21810;SDS011;11067;48.788;9.208;2022-09-02T08:12:54;2.80;;;2.35;;
21810;SDS011;11067;48.788;9.208;2022-09-02T08:15:21;3.25;;;2.38;;
21810;SDS011;11067;48.788;9.208;2022-09-02T08:17:46;3.63;;;2.50;;
21810;SDS011;11067;48.788;9.208;2022-09-02T08:20:13;3.38;;;2.22;;
21810;SDS011;11067;48.788;9.208;2022-09-02T08:22:41;2.60;;;2.10;;
21810;SDS011;11067;48.788;9.208;2022-09-02T08:25:07;2.35;;;2.00;;
21810;SDS011;11067;48.788;9.208;2022-09-02T08:27:33;2.60;;;2.17;;
21810;SDS011;11067;48.788;9.208;2022-09-02T08:29:59;3.20;;;2.50;;
21810;SDS011;11067;48.788;9.208;2022-09-02T08:32:25;2.33;;;2.13;;
21810;SDS011;11067;48.788;9.208;2022-09-02T08:34:51;2.77;;;2.10;;
21810;SDS011;11067;48.788;9.208;2022-09-02T08:37:17;3.13;;;2.00;;
21810;SDS011;11067;48.788;9.208;2022-09-02T08:39:43;3.85;;;2.30;;
21810;SDS011;11067;48.788;9.208;2022-09-02T08:42:15;2.40;;;1.80;;
21810;SDS011;11067;48.788;9.208;2022-09-02T08:44:52;2.00;;;1.55;;
21810;SDS011;11067;48.788;9.208;2022-09-02T08:47:23;2.20;;;1.73;;
21810;SDS011;11067;48.788;9.208;2022-09-02T08:49:54;1.80;;;1.70;;
21810;SDS011;11067;48.788;9.208;2022-09-02T08:52:30;2.80;;;1.70;;
21810;SDS011;11067;48.788;9.208;2022-09-02T08:55:11;2.28;;;1.70;;
21810;SDS011;11067;48.788;9.208;2022-09-02T08:57:43;1.87;;;1.67;;
21810;SDS011;11067;48.788;9.208;2022-09-02T09:00:09;2.15;;;1.73;;
21810;SDS011;11067;48.788;9.208;2022-09-02T09:02:53;3.15;;;1.50;;
21810;SDS011;11067;48.788;9.208;2022-09-02T09:05:37;4.10;;;1.73;;
21810;SDS011;11067;48.788;9.208;2022-09-02T09:08:17;2.17;;;1.70;;
21810;SDS011;11067;48.788;9.208;2022-09-02T09:13:35;2.80;;;1.70;;
21810;SDS011;11067;48.788;9.208;2022-09-02T09:18:48;3.40;;;2.03;;
21810;SDS011;11067;48.788;9.208;2022-09-02T09:21:26;2.15;;;1.75;;
21810;SDS011;11067;48.788;9.208;2022-09-02T09:23:53;3.30;;;1.60;;
21810;SDS011;11067;48.788;9.208;2022-09-02T09:26:27;2.25;;;1.45;;
21810;SDS011;11067;48.788;9.208;2022-09-02T09:28:54;2.35;;;1.52;;
21810;SDS011;11067;48.788;9.208;2022-09-02T09:31:23;2.40;;;1.70;;
21810;SDS011;11067;48.788;9.208;2022-09-02T09:33:58;3.55;;;1.67;;
21810;SDS011;11067;48.788;9.208;2022-09-02T09:39:19;1.67;;;1.35;;
21810;SDS011;11067;48.788;9.208;2022-09-02T09:41:49;2.10;;;1.50;;
21810;SDS011;11067;48.788;9.208;2022-09-02T09:47:05;2.97;;;1.50;;
21810;SDS011;11067;48.788;9.208;2022-09-02T09:49:54;2.63;;;1.50;;
21810;SDS011;11067;48.788;9.208;2022-09-02T09:52:37;2.10;;;1.50;;
21810;SDS011;11067;48.788;9.208;2022-09-02T09:55:13;2.33;;;1.60;;
21810;SDS011;11067;48.788;9.208;2022-09-02T09:57:46;1.98;;;1.40;;
21810;SDS011;11067;48.788;9.208;2022-09-02T10:00:20;2.40;;;1.50;;
21810;SDS011;11067;48.788;9.208;2022-09-02T10:02:51;1.92;;;1.48;;
21810;SDS011;11067;48.788;9.208;2022-09-02T10:07:55;4.05;;;1.50;;
21810;SDS011;11067;48.788;9.208;2022-09-02T10:10:24;1.63;;;1.23;;
21810;SDS011;11067;48.788;9.208;2022-09-02T10:12:53;2.53;;;1.23;;
21810;SDS011;11067;48.788;9.208;2022-09-02T10:15:29;1.60;;;1.20;;
21810;SDS011;11067;48.788;9.208;2022-09-02T10:18:11;3.97;;;1.60;;
21810;SDS011;11067;48.788;9.208;2022-09-02T10:20:49;1.55;;;1.10;;
21810;SDS011;11067;48.788;9.208;2022-09-02T10:23:42;3.77;;;1.20;;
21810;SDS011;11067;48.788;9.208;2022-09-02T10:26:42;2.33;;;1.48;;
21810;SDS011;11067;48.788;9.208;2022-09-02T10:37:16;1.80;;;1.00;;
21810;SDS011;11067;48.788;9.208;2022-09-02T10:42:43;1.13;;;1.02;;
21810;SDS011;11067;48.788;9.208;2022-09-02T10:48:20;2.80;;;1.10;;
21810;SDS011;11067;48.788;9.208;2022-09-02T10:51:04;1.10;;;1.00;;
21810;SDS011;11067;48.788;9.208;2022-09-02T10:54:18;3.75;;;1.30;;
21810;SDS011;11067;48.788;9.208;2022-09-02T10:57:17;1.60;;;1.30;;
21810;SDS011;11067;48.788;9.208;2022-09-02T11:00:05;1.40;;;1.27;;
21810;SDS011;11067;48.788;9.208;2022-09-02T11:02:43;1.30;;;1.20;;
21810;SDS011;11067;48.788;9.208;2022-09-02T11:05:18;1.83;;;1.30;;
21810;SDS011;11067;48.788;9.208;2022-09-02T11:07:56;2.90;;;1.30;;
21810;SDS011;11067;48.788;9.208;2022-09-02T11:10:31;2.80;;;1.43;;
21810;SDS011;11067;48.788;9.208;2022-09-02T11:13:05;2.35;;;1.40;;
21810;SDS011;11067;48.788;9.208;2022-09-02T11:16:01;2.30;;;1.30;;
21810;SDS011;11067;48.788;9.208;2022-09-02T11:18:59;2.50;;;1.50;;
21810;SDS011;11067;48.788;9.208;2022-09-02T11:21:41;1.92;;;1.20;;
21810;SDS011;11067;48.788;9.208;2022-09-02T11:24:30;2.40;;;1.17;;
21810;SDS011;11067;48.788;9.208;2022-09-02T11:27:23;1.30;;;1.20;;
21810;SDS011;11067;48.788;9.208;2022-09-02T11:32:55;1.97;;;1.27;;
21810;SDS011;11067;48.788;9.208;2022-09-02T11:35:41;1.25;;;1.10;;
21810;SDS011;11067;48.788;9.208;2022-09-02T11:41:02;2.47;;;1.48;;
21810;SDS011;11067;48.788;9.208;2022-09-02T11:46:47;1.50;;;1.30;;
21810;SDS011;11067;48.788;9.208;2022-09-02T11:58:32;1.25;;;1.15;;
21810;SDS011;11067;48.788;9.208;2022-09-02T12:03:47;1.80;;;1.40;;
21810;SDS011;11067;48.788;9.208;2022-09-02T12:06:18;2.00;;;1.52;;
21810;SDS011;11067;48.788;9.208;2022-09-02T12:13:54;2.00;;;1.50;;
21810;SDS011;11067;48.788;9.208;2022-09-02T12:21:25;1.65;;;1.40;;
21810;SDS011;11067;48.788;9.208;2022-09-02T12:26:24;1.52;;;1.40;;
21810;SDS011;11067;48.788;9.208;2022-09-02T12:28:51;1.45;;;1.30;;
21810;SDS011;11067;48.788;9.208;2022-09-02T12:36:55;1.83;;;1.35;;
21810;SDS011;11067;48.788;9.208;2022-09-02T12:44:51;1.65;;;1.38;;
21810;SDS011;11067;48.788;9.208;2022-09-02T12:49:52;2.80;;;1.45;;
21810;SDS011;11067;48.788;9.208;2022-09-02T12:55:14;1.50;;;1.30;;
21810;SDS011;11067;48.788;9.208;2022-09-02T12:57:47;2.95;;;1.50;;
21810;SDS011;11067;48.788;9.208;2022-09-02T13:00:24;3.05;;;1.40;;
21810;SDS011;11067;48.788;9.208;2022-09-02T13:03:13;1.88;;;1.40;;
21810;SDS011;11067;48.788;9.208;2022-09-02T13:08:38;1.48;;;1.38;;
21810;SDS011;11067;48.788;9.208;2022-09-02T13:22:10;2.33;;;1.53;;
21810;SDS011;11067;48.788;9.208;2022-09-02T13:25:01;1.90;;;1.55;;
21810;SDS011;11067;48.788;9.208;2022-09-02T13:31:10;2.55;;;1.63;;
21810;SDS011;11067;48.788;9.208;2022-09-02T13:36:35;1.93;;;1.70;;
21810;SDS011;11067;48.788;9.208;2022-09-02T13:39:23;4.90;;;1.70;;
21810;SDS011;11067;48.788;9.208;2022-09-02T13:41:50;3.08;;;1.50;;
21810;SDS011;11067;48.788;9.208;2022-09-02T13:44:26;2.63;;;1.60;;
21810;SDS011;11067;48.788;9.208;2022-09-02T13:49:26;5.00;;;1.60;;
21810;SDS011;11067;48.788;9.208;2022-09-02T13:51:59;1.70;;;1.42;;
21810;SDS011;11067;48.788;9.208;2022-09-02T13:54:27;2.00;;;1.70;;
21810;SDS011;11067;48.788;9.208;2022-09-02T13:56:57;3.00;;;1.50;;
21810;SDS011;11067;48.788;9.208;2022-09-02T13:59:34;2.60;;;1.50;;
21810;SDS011;11067;48.788;9.208;2022-09-02T14:02:17;2.60;;;1.70;;
21810;SDS011;11067;48.788;9.208;2022-09-02T14:04:49;2.70;;;1.60;;
21810;SDS011;11067;48.788;9.208;2022-09-02T14:07:37;2.33;;;1.63;;
21810;SDS011;11067;48.788;9.208;2022-09-02T14:10:08;2.33;;;1.70;;
21810;SDS011;11067;48.788;9.208;2022-09-02T14:12:37;2.55;;;1.70;;
21810;SDS011;11067;48.788;9.208;2022-09-02T14:15:07;3.08;;;1.80;;
21810;SDS011;11067;48.788;9.208;2022-09-02T14:17:36;2.70;;;1.63;;
21810;SDS011;11067;48.788;9.208;2022-09-02T14:22:43;1.88;;;1.52;;
21810;SDS011;11067;48.788;9.208;2022-09-02T14:25:16;2.70;;;1.73;;
21810;SDS011;11067;48.788;9.208;2022-09-02T14:27:49;3.45;;;2.10;;
21810;SDS011;11067;48.788;9.208;2022-09-02T14:30:29;2.40;;;1.60;;
21810;SDS011;11067;48.788;9.208;2022-09-02T14:35:55;2.00;;;1.50;;
21810;SDS011;11067;48.788;9.208;2022-09-02T14:38:22;1.45;;;1.35;;
21810;SDS011;11067;48.788;9.208;2022-09-02T14:40:48;2.57;;;1.50;;
21810;SDS011;11067;48.788;9.208;2022-09-02T14:43:24;2.50;;;1.63;;
21810;SDS011;11067;48.788;9.208;2022-09-02T14:45:50;2.60;;;1.50;;
21810;SDS011;11067;48.788;9.208;2022-09-02T14:48:20;1.80;;;1.60;;
21810;SDS011;11067;48.788;9.208;2022-09-02T14:50:47;1.90;;;1.70;;
21810;SDS011;11067;48.788;9.208;2022-09-02T14:53:18;3.10;;;1.97;;
21810;SDS011;11067;48.788;9.208;2022-09-02T14:55:48;2.83;;;1.70;;
21810;SDS011;11067;48.788;9.208;2022-09-02T14:58:18;2.60;;;1.60;;
21810;SDS011;11067;48.788;9.208;2022-09-02T15:00:50;1.90;;;1.48;;
21810;SDS011;11067;48.788;9.208;2022-09-02T15:03:17;2.72;;;1.33;;
21810;SDS011;11067;48.788;9.208;2022-09-02T15:05:44;1.80;;;1.60;;
21810;SDS011;11067;48.788;9.208;2022-09-02T15:08:10;2.00;;;1.50;;
21810;SDS011;11067;48.788;9.208;2022-09-02T15:10:36;2.47;;;1.47;;
21810;SDS011;11067;48.788;9.208;2022-09-02T15:13:04;2.40;;;1.80;;
21810;SDS011;11067;48.788;9.208;2022-09-02T15:15:31;2.42;;;1.48;;
21810;SDS011;11067;48.788;9.208;2022-09-02T15:17:57;2.07;;;1.30;;
21810;SDS011;11067;48.788;9.208;2022-09-02T15:20:23;2.42;;;1.50;;
21810;SDS011;11067;48.788;9.208;2022-09-02T15:22:50;4.00;;;1.60;;
21810;SDS011;11067;48.788;9.208;2022-09-02T15:25:17;2.22;;;1.55;;
21810;SDS011;11067;48.788;9.208;2022-09-02T15:27:43;2.65;;;1.60;;
21810;SDS011;11067;48.788;9.208;2022-09-02T15:30:08;2.53;;;1.67;;
21810;SDS011;11067;48.788;9.208;2022-09-02T15:32:35;1.95;;;1.50;;
21810;SDS011;11067;48.788;9.208;2022-09-02T15:35:01;4.43;;;1.48;;
21810;SDS011;11067;48.788;9.208;2022-09-02T15:37:28;1.80;;;1.50;;
21810;SDS011;11067;48.788;9.208;2022-09-02T15:40:12;3.53;;;1.60;;
21810;SDS011;11067;48.788;9.208;2022-09-02T15:42:37;4.20;;;2.10;;
21810;SDS011;11067;48.788;9.208;2022-09-02T15:45:04;3.17;;;1.60;;
21810;SDS011;11067;48.788;9.208;2022-09-02T15:47:36;5.47;;;2.03;;
21810;SDS011;11067;48.788;9.208;2022-09-02T15:50:03;3.75;;;1.60;;
21810;SDS011;11067;48.788;9.208;2022-09-02T15:52:29;2.63;;;1.55;;
21810;SDS011;11067;48.788;9.208;2022-09-02T15:54:55;2.97;;;1.58;;
21810;SDS011;11067;48.788;9.208;2022-09-02T15:57:20;2.73;;;1.47;;
21810;SDS011;11067;48.788;9.208;2022-09-02T15:59:46;2.73;;;1.40;;
21810;SDS011;11067;48.788;9.208;2022-09-02T16:02:12;2.20;;;1.33;;
21810;SDS011;11067;48.788;9.208;2022-09-02T16:04:38;1.45;;;1.33;;
21810;SDS011;11067;48.788;9.208;2022-09-02T16:07:04;2.47;;;1.50;;
21810;SDS011;11067;48.788;9.208;2022-09-02T16:09:30;3.40;;;1.70;;
21810;SDS011;11067;48.788;9.208;2022-09-02T16:11:55;2.03;;;1.40;;
21810;SDS011;11067;48.788;9.208;2022-09-02T16:14:22;4.25;;;1.40;;
21810;SDS011;11067;48.788;9.208;2022-09-02T16:16:51;7.80;;;1.90;;
21810;SDS011;11067;48.788;9.208;2022-09-02T16:19:18;3.38;;;1.63;;
21810;SDS011;11067;48.788;9.208;2022-09-02T16:21:45;1.97;;;1.60;;
21810;SDS011;11067;48.788;9.208;2022-09-02T16:24:11;1.58;;;1.48;;
21810;SDS011;11067;48.788;9.208;2022-09-02T16:26:38;1.90;;;1.70;;
21810;SDS011;11067;48.788;9.208;2022-09-02T16:29:05;2.20;;;1.60;;
21810;SDS011;11067;48.788;9.208;2022-09-02T16:31:34;3.05;;;1.50;;
21810;SDS011;11067;48.788;9.208;2022-09-02T16:34:15;1.63;;;1.40;;
21810;SDS011;11067;48.788;9.208;2022-09-02T16:36:42;1.60;;;1.50;;
21810;SDS011;11067;48.788;9.208;2022-09-02T16:39:10;1.47;;;1.30;;
21810;SDS011;11067;48.788;9.208;2022-09-02T16:41:37;1.67;;;1.50;;
21810;SDS011;11067;48.788;9.208;2022-09-02T16:44:08;1.90;;;1.20;;
21810;SDS011;11067;48.788;9.208;2022-09-02T16:46:45;1.88;;;1.55;;
21810;SDS011;11067;48.788;9.208;2022-09-02T16:49:12;1.88;;;1.25;;